To NAV CANADA Home Page Login to a new session Search on AWWS site Disclaimer Vers la page française équivalente Tips FAQ What's new on the site To the Forecasts and Observations / NOTAM section To "File a Flight Plan" website Publications and other links Update of the User's profile FIC Telephone Numbers My Weather Data Folder Route Weather Data Regional Weather Data Local Weather Data To the Forecasts and Observations / NOTAM section
Request Generated 04/22/2019 at 12:02:02 UTC . Weather information available at that time is displayed.

METAR/TAF

TORONTO/LESTER B. PEARSON INTL/ON    

METAR CYYZ 221100Z 15002KT 15SM OVC100 08/06 A3023 RMK AC8 BR SLP241=
METAR CYYZ 221000Z 09003KT 12SM FEW015 BKN110 07/06 A3020 RMK SF1AC6 SF TR SLP233=
METAR CYYZ 220900Z 32002KT 15SM FEW120 FEW240 06/05 A3019 RMK AC1CI1 SLP228=

TAF CYYZ 221139Z 2212/2318 VRB03KT P6SM FEW015 BKN100
BECMG 2213/2215 11006KT
FM221500 11006KT P6SM SCT120
FM222000 15007KT P6SM FEW140
BECMG 2301/2303 14003KT
FM231400 12008KT P6SM BKN100 TEMPO 2315/2318 P6SM -SHRA OVC080
PROB30 2315/2318 2SM TSRA BR BKN050CB OVC080
RMK NXT FCST BY 221500Z=
Your time UTC time
Weather data provided by Environment Canada and NAV CANADA